Time;durP1;ratioP1;P1;durP2;ratioP2;P2;SDS_P1;SDS_P2;PMS_P1;PMS_P2;Temp;Humidity;BMP_temperature;BMP_pressure;BME280_temperature;BME280_humidity;BME280_pressure;Samples;Min_cycle;Max_cycle;Signal;HPM_P1;HPM_P2
2021/09/11 00:02:01;;;;;;;0.75;0.73;;;;;;;19.68;56.55;101413.19;5075156;28;20490;-59
2021/09/11 00:04:27;;;;;;;0.68;0.50;;;;;;;19.70;56.02;101414.72;5075356;28;20016;-59
2021/09/11 00:06:52;;;;;;;1.00;0.90;;;;;;;19.67;57.84;101420.50;5075142;28;20023;-59
2021/09/11 00:09:17;;;;;;;0.70;0.60;;;;;;;19.70;56.49;101431.09;5074892;28;20031;-60
2021/09/11 00:11:43;;;;;;;0.95;0.65;;;;;;;19.68;56.33;101432.28;5075215;28;20025;-59
2021/09/11 00:14:08;;;;;;;0.65;0.65;;;;;;;19.67;56.36;101425.97;5074753;28;20071;-60
2021/09/11 00:16:33;;;;;;;0.50;0.50;;;;;;;19.63;56.33;101418.25;5075296;28;20123;-60
2021/09/11 00:18:59;;;;;;;0.65;0.50;;;;;;;19.65;57.36;101413.50;5074740;28;20467;-59
2021/09/11 00:21:25;;;;;;;0.77;0.50;;;;;;;19.66;57.06;101423.41;5074983;28;20032;-60
2021/09/11 00:23:52;;;;;;;0.70;0.70;;;;;;;19.64;55.72;101409.91;5074995;28;20069;-59
2021/09/11 00:26:17;;;;;;;1.30;0.63;;;;;;;19.66;56.92;101412.50;5074989;28;20039;-60
2021/09/11 00:28:42;;;;;;;0.75;0.60;;;;;;;19.67;56.53;101411.47;5074814;28;20028;-59
2021/09/11 00:31:08;;;;;;;0.60;0.60;;;;;;;19.67;56.18;101414.22;5074455;28;20028;-59
2021/09/11 00:33:34;;;;;;;0.77;0.70;;;;;;;19.65;56.55;101405.31;5074756;28;20428;-60
2021/09/11 00:35:59;;;;;;;0.60;0.60;;;;;;;19.64;57.51;101403.59;5074348;28;20024;-60
2021/09/11 00:38:25;;;;;;;0.50;0.50;;;;;;;19.64;56.55;101403.59;5074380;28;20099;-60
2021/09/11 00:40:50;;;;;;;0.82;0.68;;;;;;;19.61;57.31;101412.13;5074366;28;20481;-59
2021/09/11 00:43:26;;;;;;;0.98;0.88;;;;;;;19.64;55.98;101403.59;5074212;28;20032;-60
2021/09/11 00:45:52;;;;;;;0.65;0.50;;;;;;;19.61;56.81;101401.22;5074490;28;20021;-59
2021/09/11 00:48:17;;;;;;;1.50;0.70;;;;;;;19.59;57.26;101392.34;5074250;28;20094;-59
2021/09/11 00:50:43;;;;;;;0.90;0.43;;;;;;;19.59;56.39;101393.19;5074599;28;20021;-60
2021/09/11 00:53:11;;;;;;;1.80;0.65;;;;;;;19.55;56.57;101400.00;5074114;28;20070;-59
2021/09/11 00:55:37;;;;;;;0.55;0.50;;;;;;;19.59;56.47;101397.81;5073980;28;20055;-60
2021/09/11 00:58:03;;;;;;;0.60;0.60;;;;;;;19.59;56.58;101400.53;5074035;28;20060;-60
2021/09/11 01:00:28;;;;;;;0.70;0.60;;;;;;;19.59;57.06;101390.47;5074202;28;20032;-59
2021/09/11 01:02:54;;;;;;;0.73;0.50;;;;;;;19.61;56.74;101396.59;5073958;28;20024;-59
2021/09/11 01:05:19;;;;;;;0.60;0.60;;;;;;;19.60;57.44;101391.31;5073902;28;20036;-59
2021/09/11 01:07:46;;;;;;;2.33;0.65;;;;;;;19.53;56.91;101381.06;5073981;28;20107;-60
2021/09/11 01:10:12;;;;;;;1.08;0.65;;;;;;;19.55;57.21;101385.53;5073846;28;20017;-59
2021/09/11 01:12:39;;;;;;;0.80;0.80;;;;;;;19.52;56.35;101384.81;5074024;28;20112;-60
2021/09/11 01:15:07;;;;;;;1.23;0.80;;;;;;;19.53;56.66;101386.50;5073337;28;20056;-60
2021/09/11 01:17:33;;;;;;;0.82;0.70;;;;;;;19.53;56.40;101391.13;5074083;28;20075;-59
2021/09/11 01:19:58;;;;;;;0.68;0.60;;;;;;;19.49;57.00;101384.28;5073576;28;20095;-60
2021/09/11 01:22:24;;;;;;;0.80;0.63;;;;;;;19.50;56.37;101375.94;5073797;28;20032;-59
2021/09/11 01:25:00;;;;;;;0.60;0.55;;;;;;;19.51;56.84;101383.09;5073656;28;20360;-60
2021/09/11 01:27:28;;;;;;;1.00;0.90;;;;;;;19.48;56.97;101382.56;5073577;28;20048;-59
2021/09/11 01:29:58;;;;;;;1.05;0.80;;;;;;;19.52;56.01;101383.94;5073340;28;20032;-60
2021/09/11 01:32:26;;;;;;;1.25;0.63;;;;;;;19.50;56.63;101381.41;5073973;28;20108;-60
2021/09/11 01:34:52;;;;;;;1.15;0.68;;;;;;;19.49;56.49;101376.97;5073551;28;20032;-60
2021/09/11 01:37:18;;;;;;;1.50;0.90;;;;;;;19.50;57.70;101369.63;5055380;28;20032;-60
2021/09/11 01:39:47;;;;;;;0.85;0.80;;;;;;;19.50;56.61;101370.50;5073646;28;20103;-59
2021/09/11 01:42:21;;;;;;;0.85;0.73;;;;;;;19.51;55.71;101365.88;5072321;28;20475;-60
2021/09/11 01:44:55;;;;;;;1.25;0.70;;;;;;;19.49;56.17;101371.50;5073446;28;20107;-59
2021/09/11 01:47:20;;;;;;;0.82;0.63;;;;;;;19.46;57.98;101379.16;5073197;28;20099;-60
2021/09/11 01:49:46;;;;;;;0.52;0.52;;;;;;;19.45;56.95;101366.53;5073200;28;20111;-59
2021/09/11 01:52:11;;;;;;;0.77;0.73;;;;;;;19.48;56.80;101366.19;5073387;28;20678;-59
2021/09/11 01:54:38;;;;;;;0.50;0.50;;;;;;;19.45;57.30;101361.06;5073069;28;20052;-59
2021/09/11 01:57:09;;;;;;;0.65;0.65;;;;;;;19.44;57.05;101368.41;5073205;28;20107;-59
2021/09/11 01:59:34;;;;;;;0.95;0.80;;;;;;;19.44;57.56;101368.41;5052791;22;20103;-60
2021/09/11 02:02:01;;;;;;;1.33;0.60;;;;;;;19.46;58.35;101368.22;5033158;28;20045;-59
2021/09/11 02:04:26;;;;;;;1.60;0.90;;;;;;;19.43;56.67;101374.03;5033113;28;20032;-60
2021/09/11 02:06:52;;;;;;;0.75;0.60;;;;;;;19.43;57.67;101374.88;5033245;28;20491;-59
2021/09/11 02:09:18;;;;;;;0.60;0.57;;;;;;;19.41;56.31;101374.19;5033295;28;20025;-59
2021/09/11 02:11:43;;;;;;;1.58;0.70;;;;;;;19.44;58.50;101373.00;5033129;28;20013;-59
2021/09/11 02:14:09;;;;;;;0.95;0.75;;;;;;;19.39;56.65;101373.50;5033056;28;20029;-59
2021/09/11 02:16:34;;;;;;;0.90;0.80;;;;;;;19.37;57.31;101372.81;5033239;28;20380;-60
2021/09/11 02:18:59;;;;;;;0.88;0.80;;;;;;;19.39;56.94;101368.06;5033033;28;20033;-59
2021/09/11 02:21:24;;;;;;;1.15;0.75;;;;;;;19.41;56.92;101370.63;5032852;28;20029;-59
2021/09/11 02:23:50;;;;;;;1.25;0.95;;;;;;;19.41;56.95;101373.34;5033127;28;20025;-60
2021/09/11 02:26:15;;;;;;;1.15;0.90;;;;;;;19.40;56.76;101380.66;5032679;28;20025;-59
2021/09/11 02:28:43;;;;;;;0.88;0.65;;;;;;;19.42;56.03;101373.19;5033260;28;20037;-59
2021/09/11 02:31:09;;;;;;;1.27;0.70;;;;;;;19.39;57.54;101368.06;5033011;28;20017;-59
2021/09/11 02:33:34;;;;;;;1.20;0.68;;;;;;;19.37;57.44;101370.09;5032996;28;20494;-61
2021/09/11 02:35:59;;;;;;;1.08;0.70;;;;;;;19.36;57.21;101386.63;5032785;28;20029;-59
2021/09/11 02:38:25;;;;;;;0.55;0.55;;;;;;;19.35;57.12;101380.31;5032758;28;20476;-60
2021/09/11 02:40:50;;;;;;;0.70;0.60;;;;;;;19.33;57.14;101385.09;5032410;28;20018;-59
2021/09/11 02:43:15;;;;;;;0.80;0.80;;;;;;;19.33;57.19;101379.63;5033063;28;20475;-59
2021/09/11 02:45:41;;;;;;;0.82;0.70;;;;;;;19.33;56.33;101373.34;5032799;28;20027;-60
2021/09/11 02:48:06;;;;;;;0.98;0.90;;;;;;;19.34;57.82;101375.88;5032411;28;20461;-59
2021/09/11 02:50:31;;;;;;;0.93;0.88;;;;;;;19.33;57.55;101373.34;5032963;28;20533;-60
2021/09/11 02:52:57;;;;;;;1.17;0.70;;;;;;;19.34;56.36;101370.44;5032835;28;20028;-60
2021/09/11 02:55:22;;;;;;;1.08;0.68;;;;;;;19.30;57.32;101374.47;5036483;28;20033;-60
2021/09/11 02:57:47;;;;;;;1.08;0.98;;;;;;;19.33;56.81;101370.59;5036673;28;20024;-60
2021/09/11 03:00:13;;;;;;;1.05;0.68;;;;;;;19.34;57.24;101375.88;5036286;28;20041;-59
2021/09/11 03:02:38;;;;;;;1.95;0.88;;;;;;;19.32;56.34;101367.03;5036558;28;20570;-60
2021/09/11 03:05:04;;;;;;;1.23;0.80;;;;;;;19.31;56.83;101365.28;5036565;28;20068;-60
2021/09/11 03:07:30;;;;;;;2.45;0.90;;;;;;;19.31;57.36;101368.00;5036489;28;20029;-60
2021/09/11 03:09:55;;;;;;;0.88;0.60;;;;;;;19.30;57.27;101365.44;5036282;28;20032;-60
2021/09/11 03:12:20;;;;;;;1.25;1.00;;;;;;;19.30;57.01;101363.59;5036369;28;20033;-60
2021/09/11 03:14:46;;;;;;;1.00;0.80;;;;;;;19.31;56.94;101365.28;5036318;28;20021;-60
2021/09/11 03:17:11;;;;;;;2.13;1.10;;;;;;;19.31;57.56;101361.72;5036134;28;20017;-59
2021/09/11 03:19:36;;;;;;;1.13;0.85;;;;;;;19.28;56.94;101362.91;5035864;28;20060;-60
2021/09/11 03:22:02;;;;;;;1.17;1.08;;;;;;;19.27;57.62;101363.91;5036115;28;20041;-59
2021/09/11 03:24:28;;;;;;;1.02;0.70;;;;;;;19.29;57.63;101367.31;5036062;28;20028;-60
2021/09/11 03:26:53;;;;;;;0.80;0.80;;;;;;;19.26;59.13;101367.66;5036090;28;20048;-59
2021/09/11 03:29:19;;;;;;;2.08;0.80;;;;;;;19.28;58.00;101365.63;5036067;28;20108;-60
2021/09/11 03:31:44;;;;;;;1.13;0.82;;;;;;;19.28;56.91;101356.59;5036117;28;20063;-59
2021/09/11 03:34:09;;;;;;;1.40;0.90;;;;;;;19.32;57.31;101355.25;5035866;28;20025;-59
2021/09/11 03:36:35;;;;;;;0.77;0.60;;;;;;;19.27;57.18;101347.56;5035747;28;20387;-60
2021/09/11 03:39:00;;;;;;;1.58;1.10;;;;;;;19.23;56.99;101341.59;5035921;28;20022;-60
2021/09/11 03:41:25;;;;;;;0.98;0.75;;;;;;;19.27;57.48;101342.09;5035768;28;20026;-60
2021/09/11 03:43:51;;;;;;;0.52;0.52;;;;;;;19.27;57.19;101344.84;5035734;28;20464;-59
2021/09/11 03:46:16;;;;;;;1.00;0.80;;;;;;;19.25;57.13;101349.59;5035488;28;20025;-59
2021/09/11 03:48:41;;;;;;;0.60;0.60;;;;;;;19.23;57.44;101346.19;5035756;28;20028;-60
2021/09/11 03:51:08;;;;;;;0.85;0.85;;;;;;;19.24;57.01;101342.44;5035541;28;20059;-60
2021/09/11 03:53:34;;;;;;;1.95;0.73;;;;;;;19.27;57.70;101333.94;5035420;28;20031;-59
2021/09/11 03:55:59;;;;;;;1.17;0.80;;;;;;;19.23;56.67;101335.28;5035251;28;20484;-60
2021/09/11 03:58:24;;;;;;;1.05;0.68;;;;;;;19.22;56.63;101339.88;5035241;28;20049;-59
2021/09/11 04:00:50;;;;;;;0.60;0.52;;;;;;;19.23;56.99;101340.75;5035311;28;20029;-60
2021/09/11 04:03:15;;;;;;;0.75;0.75;;;;;;;19.88;55.16;101335.47;5035060;28;20029;-60
2021/09/11 04:05:40;;;;;;;1.05;0.90;;;;;;;20.18;55.19;101335.81;5034620;28;20490;-59
2021/09/11 04:08:06;;;;;;;0.70;0.70;;;;;;;20.38;54.05;101337.16;5035046;28;20625;-59
2021/09/11 04:10:31;;;;;;;0.68;0.60;;;;;;;20.52;54.02;101339.22;5035157;28;20075;-59
2021/09/11 04:12:56;;;;;;;1.30;0.70;;;;;;;20.63;53.89;101333.34;5035283;28;20464;-60
2021/09/11 04:15:22;;;;;;;0.70;0.68;;;;;;;20.74;53.89;101343.06;5035436;28;20468;-59
2021/09/11 04:17:47;;;;;;;0.82;0.70;;;;;;;20.80;54.64;101345.09;5035188;28;20043;-60
2021/09/11 04:20:13;;;;;;;1.20;0.70;;;;;;;20.88;54.07;101338.75;5034808;28;20639;-59
2021/09/11 04:22:38;;;;;;;0.85;0.80;;;;;;;20.93;54.07;101333.63;5035223;28;20031;-59
2021/09/11 04:25:04;;;;;;;1.10;0.70;;;;;;;21.03;55.71;101332.38;5034730;28;20460;-59
2021/09/11 04:27:29;;;;;;;0.95;0.70;;;;;;;21.02;53.76;101336.16;5035111;28;20419;-60
2021/09/11 04:29:55;;;;;;;0.70;0.68;;;;;;;21.04;53.51;101344.19;5034642;28;20029;-60
2021/09/11 04:32:20;;;;;;;1.38;0.80;;;;;;;21.11;53.68;101334.22;5034995;28;20030;-59
2021/09/11 04:34:46;;;;;;;0.57;0.50;;;;;;;21.15;55.71;101337.44;5034543;28;20109;-60
2021/09/11 04:37:11;;;;;;;1.75;0.65;;;;;;;21.13;54.58;101337.63;5034481;28;20026;-59
2021/09/11 04:39:37;;;;;;;1.50;0.88;;;;;;;21.17;57.30;101333.53;5034912;28;20521;-59
2021/09/11 04:42:02;;;;;;;0.88;0.70;;;;;;;21.21;54.32;101340.34;5034086;28;20056;-60
2021/09/11 04:44:28;;;;;;;0.88;0.70;;;;;;;21.25;56.10;101324.44;5034743;28;20033;-59
2021/09/11 04:46:54;;;;;;;0.57;0.57;;;;;;;21.29;54.20;101332.09;5034327;28;20030;-60
2021/09/11 04:49:19;;;;;;;0.95;0.65;;;;;;;21.34;54.10;101328.00;5034287;28;20068;-59
2021/09/11 04:51:45;;;;;;;1.02;0.95;;;;;;;21.32;54.28;101326.28;5034413;28;20025;-60
2021/09/11 04:54:10;;;;;;;1.13;0.60;;;;;;;21.38;54.32;101323.88;5034218;28;20041;-60
2021/09/11 04:56:35;;;;;;;0.88;0.80;;;;;;;21.34;53.65;101322.53;5034148;28;20025;-59
2021/09/11 04:59:01;;;;;;;2.05;0.50;;;;;;;21.37;55.72;101316.72;5034259;28;20480;-60
2021/09/11 05:01:26;;;;;;;1.23;0.90;;;;;;;21.38;54.68;101324.72;5033979;28;20029;-60
2021/09/11 05:03:51;;;;;;;1.00;0.60;;;;;;;21.46;55.48;101326.56;5034154;28;20028;-60
2021/09/11 05:06:17;;;;;;;1.05;0.82;;;;;;;21.44;54.53;101323.16;5034253;28;20029;-59
2021/09/11 05:08:42;;;;;;;0.80;0.65;;;;;;;21.45;54.16;101324.84;5034234;28;20391;-59
2021/09/11 05:11:07;;;;;;;0.90;0.73;;;;;;;21.54;53.75;101318.31;5033954;28;20026;-60
2021/09/11 05:13:33;;;;;;;2.22;0.80;;;;;;;21.57;54.60;101317.94;5034037;28;20067;-59
2021/09/11 05:15:59;;;;;;;3.08;0.77;;;;;;;21.53;52.97;101320.19;5033773;28;20096;-60
2021/09/11 05:18:24;;;;;;;2.30;0.82;;;;;;;21.57;53.67;101321.53;5033245;28;20025;-60
2021/09/11 05:20:49;;;;;;;0.90;0.80;;;;;;;21.57;54.24;101318.78;5033810;28;20036;-59
2021/09/11 05:23:15;;;;;;;0.95;0.80;;;;;;;21.57;55.28;101318.78;5033814;28;20025;-59
2021/09/11 05:25:40;;;;;;;0.70;0.70;;;;;;;21.56;54.08;101318.97;5033799;28;20036;-59
2021/09/11 05:28:05;;;;;;;2.08;0.75;;;;;;;21.60;54.32;101314.84;5033770;28;20495;-60
2021/09/11 05:30:31;;;;;;;0.40;0.40;;;;;;;21.61;54.10;101331.06;5033732;28;20499;-59
2021/09/11 05:32:56;;;;;;;0.90;0.73;;;;;;;21.61;53.89;101335.69;5033734;28;20032;-61
2021/09/11 05:35:21;;;;;;;1.33;0.60;;;;;;;21.62;54.34;101342.88;5033379;28;20108;-60
2021/09/11 05:37:47;;;;;;;0.88;0.63;;;;;;;21.60;53.52;101331.25;5033720;28;20480;-60
2021/09/11 05:40:12;;;;;;;0.63;0.55;;;;;;;21.67;56.04;101334.97;5033231;28;20036;-60
2021/09/11 05:42:37;;;;;;;0.88;0.70;;;;;;;21.59;54.29;101343.22;5033754;28;20021;-60
2021/09/11 05:45:05;;;;;;;0.82;0.75;;;;;;;21.62;55.57;101337.38;5033455;28;20052;-60
2021/09/11 05:47:30;;;;;;;0.55;0.47;;;;;;;21.58;54.53;101336.91;5033633;28;20017;-59
2021/09/11 05:49:57;;;;;;;0.60;0.60;;;;;;;21.62;54.77;101337.38;5033170;28;20365;-61
2021/09/11 05:52:24;;;;;;;1.17;0.70;;;;;;;21.65;54.32;101339.75;5033338;28;20033;-60
2021/09/11 05:54:49;;;;;;;0.43;0.32;;;;;;;21.61;55.58;101335.69;5033370;28;20026;-60
2021/09/11 05:57:15;;;;;;;1.00;0.40;;;;;;;21.63;53.60;101339.94;5032936;28;20067;-60
2021/09/11 05:59:40;;;;;;;0.63;0.57;;;;;;;21.72;55.10;101337.16;5033261;28;20049;-60
2021/09/11 06:02:06;;;;;;;0.95;0.50;;;;;;;21.67;55.43;101334.97;5033101;28;20032;-60
2021/09/11 06:04:32;;;;;;;0.63;0.50;;;;;;;21.72;54.32;101331.69;5033269;28;20030;-60
2021/09/11 06:06:58;;;;;;;0.90;0.52;;;;;;;21.63;55.42;101331.72;5033154;28;20032;-61
2021/09/11 06:09:23;;;;;;;0.60;0.50;;;;;;;21.68;54.88;101325.75;5033268;28;20029;-60
2021/09/11 06:11:48;;;;;;;0.73;0.50;;;;;;;21.74;53.93;101332.34;5033113;28;20136;-59
2021/09/11 06:14:14;;;;;;;2.22;0.52;;;;;;;21.80;56.79;101320.66;5032906;28;20128;-60
2021/09/11 06:16:39;;;;;;;1.08;0.60;;;;;;;21.72;55.02;101321.59;5033384;28;20021;-60
2021/09/11 06:19:04;;;;;;;1.42;0.60;;;;;;;21.74;54.77;101327.75;5031720;28;20376;-60
2021/09/11 06:21:30;;;;;;;2.15;0.70;;;;;;;21.78;55.08;101326.34;5033251;28;20029;-59
2021/09/11 06:23:55;;;;;;;0.60;0.60;;;;;;;21.77;55.33;101327.38;5033030;28;20029;-60
2021/09/11 06:26:20;;;;;;;0.40;0.38;;;;;;;21.74;53.70;101327.75;5032885;28;20025;-60
2021/09/11 06:28:46;;;;;;;1.30;0.50;;;;;;;21.73;54.40;101342.47;5034784;28;20104;-61
2021/09/11 06:31:11;;;;;;;0.63;0.60;;;;;;;21.77;56.22;101335.56;5037156;28;20401;-59
2021/09/11 06:33:36;;;;;;;0.63;0.45;;;;;;;21.74;55.36;101335.94;5037210;28;20399;-60
2021/09/11 06:36:02;;;;;;;0.40;0.40;;;;;;;21.78;56.39;101331.81;5037011;28;20036;-60
2021/09/11 06:38:27;;;;;;;0.50;0.50;;;;;;;21.68;53.43;101336.69;5037057;28;20029;-59
2021/09/11 06:40:52;;;;;;;1.88;0.75;;;;;;;21.58;53.57;101336.06;5036908;28;20447;-60
2021/09/11 06:43:18;;;;;;;0.60;0.50;;;;;;;21.51;53.88;101313.19;5036827;28;20489;-59
2021/09/11 06:45:43;;;;;;;1.10;0.50;;;;;;;21.44;53.50;101309.47;5036944;28;20028;-60
2021/09/11 06:48:09;;;;;;;0.57;0.40;;;;;;;21.44;51.92;101317.69;5036692;28;20464;-59
2021/09/11 06:50:34;;;;;;;0.30;0.30;;;;;;;21.34;52.52;101314.34;5036793;28;20017;-60
2021/09/11 06:53:00;;;;;;;0.60;0.30;;;;;;;21.30;53.06;101303.72;5036435;28;20037;-59
2021/09/11 06:55:25;;;;;;;0.63;0.50;;;;;;;21.32;54.25;101309.88;5036962;28;20021;-60
2021/09/11 06:57:51;;;;;;;0.98;0.50;;;;;;;21.36;52.32;101309.53;5036565;28;20380;-61
2021/09/11 07:00:17;;;;;;;1.02;0.40;;;;;;;21.34;52.50;101308.88;5036480;28;20415;-60
2021/09/11 07:02:42;;;;;;;1.63;0.55;;;;;;;21.35;51.98;101313.31;5036836;28;20112;-60
2021/09/11 07:05:08;;;;;;;0.47;0.35;;;;;;;21.36;53.52;101320.47;5036606;28;20025;-60
2021/09/11 07:07:33;;;;;;;1.23;0.50;;;;;;;21.29;52.57;101314.84;5035421;28;20052;-60
2021/09/11 07:09:59;;;;;;;0.28;0.20;;;;;;;21.32;52.98;101318.06;5035481;28;20464;-59
2021/09/11 07:12:24;;;;;;;0.45;0.20;;;;;;;21.31;53.38;101312.78;5036133;28;20017;-60
2021/09/11 07:14:50;;;;;;;0.65;0.40;;;;;;;21.35;53.10;101313.31;5036413;28;20037;-60
2021/09/11 07:17:15;;;;;;;0.85;0.35;;;;;;;21.34;51.87;101306.13;5036038;28;20522;-59
2021/09/11 07:19:40;;;;;;;0.40;0.40;;;;;;;21.34;53.52;101317.06;5036106;28;20079;-60
2021/09/11 07:22:06;;;;;;;0.30;0.30;;;;;;;21.35;52.01;101324.25;5036053;28;20048;-59
2021/09/11 07:24:31;;;;;;;0.95;0.30;;;;;;;21.30;51.46;101328.34;5036260;28;20029;-60
2021/09/11 07:26:56;;;;;;;0.30;0.20;;;;;;;21.28;52.93;101327.69;5036201;28;20017;-59
2021/09/11 07:29:22;;;;;;;1.70;0.50;;;;;;;21.26;53.50;101331.63;5036101;28;20029;-60
2021/09/11 07:31:47;;;;;;;0.40;0.40;;;;;;;21.28;52.72;101324.94;5036128;28;20151;-59
2021/09/11 07:34:12;;;;;;;0.40;0.30;;;;;;;21.26;53.07;101332.47;5036007;28;20064;-60
2021/09/11 07:36:38;;;;;;;1.85;0.60;;;;;;;21.28;51.64;101329.56;5035816;28;20459;-60
2021/09/11 07:39:04;;;;;;;0.28;0.20;;;;;;;21.27;52.76;101317.75;5035803;28;20021;-60
2021/09/11 07:41:29;;;;;;;0.73;0.30;;;;;;;21.31;53.65;101316.38;5034549;28;20017;-60
2021/09/11 07:43:54;;;;;;;1.15;0.47;;;;;;;21.30;52.00;101322.88;5035801;28;20025;-59
2021/09/11 07:46:20;;;;;;;0.60;0.40;;;;;;;21.30;53.02;101332.97;5035736;28;20403;-60
2021/09/11 07:48:45;;;;;;;1.15;0.40;;;;;;;21.25;53.18;101319.84;5035875;28;20033;-59
2021/09/11 07:51:10;;;;;;;0.25;0.25;;;;;;;21.27;53.08;101319.66;5035680;28;20021;-60
2021/09/11 07:53:37;;;;;;;0.55;0.30;;;;;;;21.27;52.14;101327.84;5035439;28;20108;-60
2021/09/11 07:56:02;;;;;;;0.52;0.20;;;;;;;21.30;52.77;101332.97;5035626;28;20630;-59
2021/09/11 07:58:28;;;;;;;0.38;0.28;;;;;;;21.26;52.06;101331.63;5035168;28;20116;-60
2021/09/11 08:00:55;;;;;;;1.90;0.32;;;;;;;21.30;52.69;101324.75;5035552;28;20035;-59
2021/09/11 08:03:22;;;;;;;0.35;0.30;;;;;;;21.29;52.47;101332.09;5035190;28;20034;-60
2021/09/11 08:05:47;;;;;;;0.65;0.28;;;;;;;21.27;52.92;101331.44;5035689;28;20538;-59
2021/09/11 08:08:13;;;;;;;0.50;0.35;;;;;;;21.30;54.85;101327.50;5035265;28;20033;-60
2021/09/11 08:10:38;;;;;;;0.25;0.25;;;;;;;21.29;52.69;101332.09;5035739;28;20017;-59
2021/09/11 08:13:03;;;;;;;1.30;0.28;;;;;;;21.34;52.93;101328.00;5034820;28;20029;-60
2021/09/11 08:15:29;;;;;;;0.17;0.10;;;;;;;21.27;52.74;101328.72;5035472;28;20021;-59
2021/09/11 08:17:55;;;;;;;0.43;0.20;;;;;;;21.24;52.98;101334.53;5035217;28;20411;-59
2021/09/11 08:20:21;;;;;;;0.25;0.22;;;;;;;21.25;52.89;101330.78;5034942;28;20021;-60
2021/09/11 08:22:47;;;;;;;0.50;0.20;;;;;;;21.28;53.16;101330.41;5034964;28;20083;-59
2021/09/11 08:25:12;;;;;;;0.10;0.10;;;;;;;21.29;52.23;101325.78;5034949;28;20025;-60
2021/09/11 08:27:38;;;;;;;0.40;0.20;;;;;;;21.27;53.39;101330.59;5035199;28;20056;-60
2021/09/11 08:30:05;;;;;;;0.75;0.22;;;;;;;21.28;53.23;101318.63;5034583;28;20087;-59
2021/09/11 08:32:30;;;;;;;0.88;0.30;;;;;;;21.26;53.05;101321.53;5035144;28;20052;-59
2021/09/11 08:34:56;;;;;;;0.30;0.13;;;;;;;21.30;54.26;101332.97;5034889;28;20456;-59
2021/09/11 08:37:21;;;;;;;0.30;0.30;;;;;;;21.34;54.81;101323.38;5034901;28;20025;-60
2021/09/11 08:39:46;;;;;;;0.20;0.15;;;;;;;21.35;52.80;101327.81;5035021;28;20419;-59
2021/09/11 08:42:12;;;;;;;0.73;0.50;;;;;;;21.31;52.48;101338.25;5034171;28;20021;-60
2021/09/11 08:44:37;;;;;;;0.15;0.10;;;;;;;21.29;55.43;101334.84;5034909;28;20025;-60
2021/09/11 08:47:06;;;;;;;0.45;0.30;;;;;;;21.26;52.76;101340.69;5034284;28;20041;-60
2021/09/11 08:49:31;;;;;;;2.30;0.57;;;;;;;21.31;52.99;101335.50;5034827;28;20025;-60
2021/09/11 08:51:57;;;;;;;0.22;0.20;;;;;;;21.28;55.16;101335.88;5034094;28;20025;-59
2021/09/11 08:54:22;;;;;;;0.70;0.28;;;;;;;21.26;55.41;101332.47;5034467;28;20030;-60
2021/09/11 08:56:50;;;;;;;0.57;0.20;;;;;;;21.27;52.56;101328.72;5034563;28;20051;-59
2021/09/11 08:59:17;;;;;;;0.65;0.32;;;;;;;21.25;53.17;101335.38;5034182;28;20091;-60
2021/09/11 09:01:59;;;;;;;0.93;0.30;;;;;;;21.27;53.18;101328.72;5034488;28;20080;-59
2021/09/11 09:04:41;;;;;;;0.80;0.30;;;;;;;21.31;52.93;101326.47;5034431;28;20472;-60
2021/09/11 09:07:06;;;;;;;1.38;0.40;;;;;;;21.32;52.52;101331.75;5034111;28;20033;-59
2021/09/11 09:09:39;;;;;;;0.20;0.20;;;;;;;21.24;52.92;101320.88;5034414;28;20079;-60
2021/09/11 09:12:13;;;;;;;0.60;0.20;;;;;;;21.27;53.50;101320.50;5034045;28;20116;-59
2021/09/11 09:14:38;;;;;;;1.17;0.30;;;;;;;21.30;53.71;101320.13;5034370;28;20100;-60
2021/09/11 09:17:10;;;;;;;0.95;0.13;;;;;;;21.30;52.68;101316.56;5033929;28;20056;-60
2021/09/11 09:19:37;;;;;;;0.30;0.10;;;;;;;21.27;51.90;101322.38;5034220;28;20353;-60
2021/09/11 09:22:04;;;;;;;1.17;0.60;;;;;;;21.27;53.24;101323.25;5034058;28;20032;-59
2021/09/11 09:24:37;;;;;;;0.80;0.30;;;;;;;21.25;53.48;101325.31;5034070;28;20104;-60
2021/09/11 09:27:08;;;;;;;0.45;0.10;;;;;;;21.29;53.22;101325.78;5034080;28;20095;-59
2021/09/11 09:29:36;;;;;;;1.10;0.28;;;;;;;21.29;53.41;101326.63;5033968;28;20415;-60
2021/09/11 09:32:02;;;;;;;0.30;0.20;;;;;;;21.28;53.22;101314.00;5033302;28;20028;-59
2021/09/11 09:34:41;;;;;;;2.08;0.63;;;;;;;21.28;53.16;101321.34;5032558;28;20510;-60
2021/09/11 09:37:13;;;;;;;0.50;0.17;;;;;;;21.28;52.99;101314.00;5033648;28;20472;-59
2021/09/11 09:39:43;;;;;;;0.47;0.20;;;;;;;21.30;52.71;101309.19;5033627;28;20075;-59
2021/09/11 09:42:11;;;;;;;0.50;0.20;;;;;;;21.25;53.41;101314.38;5033160;28;20030;-59
2021/09/11 09:44:40;;;;;;;1.63;0.20;;;;;;;21.27;52.89;101306.81;5033438;28;20104;-60
2021/09/11 09:47:05;;;;;;;0.20;0.20;;;;;;;21.32;54.29;101304.41;5033727;28;20353;-60
2021/09/11 09:49:31;;;;;;;0.77;0.20;;;;;;;21.30;53.60;101308.34;5033712;28;20032;-59
2021/09/11 09:51:58;;;;;;;0.22;0.15;;;;;;;21.29;53.32;101307.50;5033529;28;20511;-60
2021/09/11 09:54:23;;;;;;;0.60;0.25;;;;;;;21.28;53.04;101308.53;5032522;28;20037;-59
2021/09/11 09:56:49;;;;;;;1.08;0.45;;;;;;;21.28;52.82;101308.53;5033566;28;20491;-59
2021/09/11 09:59:16;;;;;;;0.75;0.28;;;;;;;21.26;53.53;101315.22;5033110;28;20073;-60
2021/09/11 10:01:41;;;;;;;0.30;0.10;;;;;;;21.31;52.91;101313.63;5033278;28;20116;-60
2021/09/11 10:04:20;;;;;;;0.35;0.20;;;;;;;21.29;52.90;101302.03;5032604;28;20167;-60
2021/09/11 10:06:54;;;;;;;0.20;0.20;;;;;;;21.28;53.50;101305.78;5033060;28;20025;-61
2021/09/11 10:09:23;;;;;;;0.52;0.20;;;;;;;21.30;53.03;101301.00;5033218;28;20029;-59
2021/09/11 10:11:50;;;;;;;0.65;0.20;;;;;;;21.28;53.13;101291.28;5033236;28;20029;-60
2021/09/11 10:14:17;;;;;;;0.43;0.13;;;;;;;21.29;54.71;101292.97;5033348;28;20080;-60
2021/09/11 10:16:44;;;;;;;0.82;0.20;;;;;;;21.29;52.92;101298.44;5032883;28;20025;-59
2021/09/11 10:19:18;;;;;;;0.38;0.10;;;;;;;21.30;54.24;101295.53;5033146;28;20632;-59
2021/09/11 10:21:44;;;;;;;0.40;0.20;;;;;;;21.28;52.48;101294.84;5033069;28;20025;-59
2021/09/11 10:24:13;;;;;;;0.57;0.28;;;;;;;21.32;52.75;101289.88;5033058;28;20083;-60
2021/09/11 10:26:46;;;;;;;0.32;0.20;;;;;;;21.28;53.91;101292.13;5033184;28;20068;-59
2021/09/11 10:29:37;;;;;;;0.20;0.20;;;;;;;21.28;53.29;101289.38;5033122;28;20376;-60
2021/09/11 10:32:19;;;;;;;0.93;0.32;;;;;;;21.27;52.78;101276.75;5032727;28;20468;-59
2021/09/11 10:34:49;;;;;;;0.60;0.30;;;;;;;21.26;52.67;101277.78;5033173;28;20029;-60
2021/09/11 10:37:31;;;;;;;0.52;0.13;;;;;;;21.31;53.03;101275.34;5033054;28;20021;-60
2021/09/11 10:40:17;;;;;;;0.20;0.20;;;;;;;21.29;53.22;101266.47;5032751;28;20108;-60
2021/09/11 10:43:10;;;;;;;0.52;0.20;;;;;;;21.27;53.40;101264.97;5013015;28;20022;-61
2021/09/11 10:45:41;;;;;;;0.30;0.30;;;;;;;21.30;54.15;101257.25;5013196;28;20030;-60
2021/09/11 10:48:44;;;;;;;0.80;0.30;;;;;;;21.27;52.98;101257.59;5012886;28;20025;-60
2021/09/11 10:51:11;;;;;;;0.77;0.30;;;;;;;21.27;52.74;101257.59;5015589;28;20508;-59
2021/09/11 10:53:37;;;;;;;0.65;0.30;;;;;;;21.26;52.74;101255.91;5032698;28;20033;-60
2021/09/11 10:56:27;;;;;;;2.03;0.30;;;;;;;21.40;57.15;101259.75;5032445;28;20030;-60
2021/09/11 10:59:14;;;;;;;0.98;0.30;;;;;;;21.33;53.71;101261.50;5024772;28;20045;-60
2021/09/11 11:02:04;;;;;;;2.00;0.40;;;;;;;21.37;52.50;101262.00;5032191;28;20030;-60
2021/09/11 11:04:48;;;;;;;0.60;0.20;;;;;;;21.33;52.84;101261.50;5032837;28;20500;-59
2021/09/11 11:07:39;;;;;;;0.28;0.20;;;;;;;21.37;53.17;101267.47;5032630;28;20053;-60
2021/09/11 11:10:17;;;;;;;0.93;0.10;;;;;;;21.32;53.71;101230.56;5032209;28;20025;-59
2021/09/11 11:12:48;;;;;;;0.47;0.25;;;;;;;21.29;53.27;101255.53;5032465;28;20030;-59
2021/09/11 11:15:23;;;;;;;1.85;0.30;;;;;;;21.36;54.65;101254.84;5034755;28;20056;-59
2021/09/11 11:17:49;;;;;;;0.30;0.20;;;;;;;21.30;53.99;101265.44;5036315;28;20104;-59
2021/09/11 11:20:21;;;;;;;0.20;0.20;;;;;;;21.32;52.38;101260.63;5036192;28;20060;-59
2021/09/11 11:22:47;;;;;;;0.13;0.10;;;;;;;21.34;53.21;101259.63;5036391;28;20021;-59
2021/09/11 11:25:28;;;;;;;0.88;0.30;;;;;;;21.38;53.34;101260.97;5035903;28;20585;-59